sensor_id;sensor_type;location;lat;lon;timestamp;temperature;humidity
23560;DHT22;11958;50.836;4.438;2023-06-14T00:01:24;21.60;34.20
23560;DHT22;11958;50.836;4.438;2023-06-14T00:03:50;21.20;34.80
23560;DHT22;11958;50.836;4.438;2023-06-14T00:06:16;21.10;35.50
23560;DHT22;11958;50.836;4.438;2023-06-14T00:08:43;21.10;35.30
23560;DHT22;11958;50.836;4.438;2023-06-14T00:11:09;20.90;36.20
23560;DHT22;11958;50.836;4.438;2023-06-14T00:13:34;21.00;36.00
23560;DHT22;11958;50.836;4.438;2023-06-14T00:16:01;20.80;36.90
23560;DHT22;11958;50.836;4.438;2023-06-14T00:18:29;20.80;37.20
23560;DHT22;11958;50.836;4.438;2023-06-14T00:20:55;20.90;35.40
23560;DHT22;11958;50.836;4.438;2023-06-14T00:23:21;20.80;36.80
23560;DHT22;11958;50.836;4.438;2023-06-14T00:25:47;20.90;35.30
23560;DHT22;11958;50.836;4.438;2023-06-14T00:28:13;21.00;35.50
23560;DHT22;11958;50.836;4.438;2023-06-14T00:30:39;21.00;34.90
23560;DHT22;11958;50.836;4.438;2023-06-14T00:33:05;20.90;35.20
23560;DHT22;11958;50.836;4.438;2023-06-14T00:35:31;20.70;36.80
23560;DHT22;11958;50.836;4.438;2023-06-14T00:37:56;20.50;37.30
23560;DHT22;11958;50.836;4.438;2023-06-14T00:40:22;20.10;38.10
23560;DHT22;11958;50.836;4.438;2023-06-14T00:42:48;20.00;38.60
23560;DHT22;11958;50.836;4.438;2023-06-14T00:45:14;20.10;38.70
23560;DHT22;11958;50.836;4.438;2023-06-14T00:47:43;20.10;38.80
23560;DHT22;11958;50.836;4.438;2023-06-14T00:50:10;19.90;39.60
23560;DHT22;11958;50.836;4.438;2023-06-14T00:52:36;20.20;39.40
23560;DHT22;11958;50.836;4.438;2023-06-14T00:55:03;20.40;39.40
23560;DHT22;11958;50.836;4.438;2023-06-14T00:57:28;20.20;39.40
23560;DHT22;11958;50.836;4.438;2023-06-14T00:59:57;20.40;38.90
23560;DHT22;11958;50.836;4.438;2023-06-14T01:02:23;20.30;38.10
23560;DHT22;11958;50.836;4.438;2023-06-14T01:04:50;20.30;38.70
23560;DHT22;11958;50.836;4.438;2023-06-14T01:10:56;20.00;39.30
23560;DHT22;11958;50.836;4.438;2023-06-14T01:13:35;19.90;39.20
23560;DHT22;11958;50.836;4.438;2023-06-14T01:16:02;20.20;38.40
23560;DHT22;11958;50.836;4.438;2023-06-14T01:18:29;19.90;38.70
23560;DHT22;11958;50.836;4.438;2023-06-14T01:20:55;19.70;39.40
23560;DHT22;11958;50.836;4.438;2023-06-14T01:23:22;19.50;40.40
23560;DHT22;11958;50.836;4.438;2023-06-14T01:25:49;19.40;40.60
23560;DHT22;11958;50.836;4.438;2023-06-14T01:28:19;19.40;41.30
23560;DHT22;11958;50.836;4.438;2023-06-14T01:30:48;19.40;41.60
23560;DHT22;11958;50.836;4.438;2023-06-14T01:33:22;19.50;41.80
23560;DHT22;11958;50.836;4.438;2023-06-14T01:35:51;19.60;41.60
23560;DHT22;11958;50.836;4.438;2023-06-14T01:38:19;19.60;40.90
23560;DHT22;11958;50.836;4.438;2023-06-14T01:40:45;19.80;39.30
23560;DHT22;11958;50.836;4.438;2023-06-14T01:43:16;19.50;39.70
23560;DHT22;11958;50.836;4.438;2023-06-14T01:45:43;19.40;39.80
23560;DHT22;11958;50.836;4.438;2023-06-14T01:48:10;19.70;39.00
23560;DHT22;11958;50.836;4.438;2023-06-14T01:50:35;19.50;39.60
23560;DHT22;11958;50.836;4.438;2023-06-14T01:53:01;19.40;41.10
23560;DHT22;11958;50.836;4.438;2023-06-14T02:00:39;19.70;41.40
23560;DHT22;11958;50.836;4.438;2023-06-14T02:03:05;19.70;40.70
23560;DHT22;11958;50.836;4.438;2023-06-14T02:05:31;19.50;40.30
23560;DHT22;11958;50.836;4.438;2023-06-14T02:07:57;19.50;41.70
23560;DHT22;11958;50.836;4.438;2023-06-14T02:10:23;19.50;40.80
23560;DHT22;11958;50.836;4.438;2023-06-14T02:12:48;19.40;41.20
23560;DHT22;11958;50.836;4.438;2023-06-14T02:15:14;19.30;41.40
23560;DHT22;11958;50.836;4.438;2023-06-14T02:17:47;19.60;40.30
23560;DHT22;11958;50.836;4.438;2023-06-14T02:20:14;19.50;40.00
23560;DHT22;11958;50.836;4.438;2023-06-14T02:22:40;19.20;40.70
23560;DHT22;11958;50.836;4.438;2023-06-14T02:25:07;19.00;41.60
23560;DHT22;11958;50.836;4.438;2023-06-14T02:27:33;19.20;41.10
23560;DHT22;11958;50.836;4.438;2023-06-14T02:29:59;19.30;40.60
23560;DHT22;11958;50.836;4.438;2023-06-14T02:32:26;19.10;41.30
23560;DHT22;11958;50.836;4.438;2023-06-14T02:34:53;19.00;41.90
23560;DHT22;11958;50.836;4.438;2023-06-14T02:42:29;19.00;40.90
23560;DHT22;11958;50.836;4.438;2023-06-14T02:48:19;19.20;40.80
23560;DHT22;11958;50.836;4.438;2023-06-14T02:51:01;19.40;39.90
23560;DHT22;11958;50.836;4.438;2023-06-14T02:57:27;19.50;39.00
23560;DHT22;11958;50.836;4.438;2023-06-14T03:03:11;19.40;39.00
23560;DHT22;11958;50.836;4.438;2023-06-14T03:05:53;19.60;39.00
23560;DHT22;11958;50.836;4.438;2023-06-14T03:14:33;19.60;38.60
23560;DHT22;11958;50.836;4.438;2023-06-14T03:16:58;19.50;38.20
23560;DHT22;11958;50.836;4.438;2023-06-14T03:19:28;19.40;38.60
23560;DHT22;11958;50.836;4.438;2023-06-14T03:21:54;19.40;39.40
23560;DHT22;11958;50.836;4.438;2023-06-14T03:27:07;19.70;38.30
23560;DHT22;11958;50.836;4.438;2023-06-14T03:29:58;19.50;39.40
23560;DHT22;11958;50.836;4.438;2023-06-14T03:32:24;19.20;40.40
23560;DHT22;11958;50.836;4.438;2023-06-14T03:34:50;19.20;40.40
23560;DHT22;11958;50.836;4.438;2023-06-14T03:37:16;19.50;40.10
23560;DHT22;11958;50.836;4.438;2023-06-14T03:39:42;19.20;40.50
23560;DHT22;11958;50.836;4.438;2023-06-14T03:42:13;19.20;40.00
23560;DHT22;11958;50.836;4.438;2023-06-14T03:44:39;19.00;40.20
23560;DHT22;11958;50.836;4.438;2023-06-14T03:47:05;18.90;40.80
23560;DHT22;11958;50.836;4.438;2023-06-14T03:49:31;18.80;41.20
23560;DHT22;11958;50.836;4.438;2023-06-14T03:51:58;19.00;40.60
23560;DHT22;11958;50.836;4.438;2023-06-14T03:54:24;18.90;41.10
23560;DHT22;11958;50.836;4.438;2023-06-14T03:56:50;18.90;41.10
23560;DHT22;11958;50.836;4.438;2023-06-14T03:59:50;18.80;41.40
23560;DHT22;11958;50.836;4.438;2023-06-14T04:05:03;18.70;41.90
23560;DHT22;11958;50.836;4.438;2023-06-14T04:08:03;18.80;41.80
23560;DHT22;11958;50.836;4.438;2023-06-14T04:10:34;18.60;42.50
23560;DHT22;11958;50.836;4.438;2023-06-14T04:16:28;18.40;43.50
23560;DHT22;11958;50.836;4.438;2023-06-14T04:19:21;18.60;42.80
23560;DHT22;11958;50.836;4.438;2023-06-14T04:21:50;19.00;41.50
23560;DHT22;11958;50.836;4.438;2023-06-14T04:24:39;18.80;42.70
23560;DHT22;11958;50.836;4.438;2023-06-14T04:27:05;18.80;42.60
23560;DHT22;11958;50.836;4.438;2023-06-14T04:29:32;18.70;42.30
23560;DHT22;11958;50.836;4.438;2023-06-14T04:31:57;19.00;42.10
23560;DHT22;11958;50.836;4.438;2023-06-14T04:34:27;19.10;42.00
23560;DHT22;11958;50.836;4.438;2023-06-14T04:36:56;18.90;42.10
23560;DHT22;11958;50.836;4.438;2023-06-14T04:39:23;19.00;42.20
23560;DHT22;11958;50.836;4.438;2023-06-14T04:41:49;18.90;42.90
23560;DHT22;11958;50.836;4.438;2023-06-14T04:44:23;18.80;42.50
23560;DHT22;11958;50.836;4.438;2023-06-14T04:46:56;19.00;42.70
23560;DHT22;11958;50.836;4.438;2023-06-14T04:49:22;18.90;42.90
23560;DHT22;11958;50.836;4.438;2023-06-14T04:51:48;18.90;42.20
23560;DHT22;11958;50.836;4.438;2023-06-14T05:02:08;19.40;41.10
23560;DHT22;11958;50.836;4.438;2023-06-14T05:04:34;19.30;41.60
23560;DHT22;11958;50.836;4.438;2023-06-14T05:07:02;19.30;41.90
23560;DHT22;11958;50.836;4.438;2023-06-14T05:09:28;19.40;41.40
23560;DHT22;11958;50.836;4.438;2023-06-14T05:11:54;19.90;40.80
23560;DHT22;11958;50.836;4.438;2023-06-14T05:14:21;19.90;39.90
23560;DHT22;11958;50.836;4.438;2023-06-14T05:16:47;19.60;40.70
23560;DHT22;11958;50.836;4.438;2023-06-14T05:19:14;19.60;40.40
23560;DHT22;11958;50.836;4.438;2023-06-14T05:21:39;19.60;40.60
23560;DHT22;11958;50.836;4.438;2023-06-14T05:24:05;19.70;40.80
23560;DHT22;11958;50.836;4.438;2023-06-14T05:26:31;19.90;40.60
23560;DHT22;11958;50.836;4.438;2023-06-14T05:28:58;20.00;39.50
23560;DHT22;11958;50.836;4.438;2023-06-14T05:31:24;19.80;40.50
23560;DHT22;11958;50.836;4.438;2023-06-14T05:33:52;20.00;40.20
23560;DHT22;11958;50.836;4.438;2023-06-14T05:36:18;20.10;39.40
23560;DHT22;11958;50.836;4.438;2023-06-14T05:38:45;20.00;40.20
23560;DHT22;11958;50.836;4.438;2023-06-14T05:41:11;20.00;40.40
23560;DHT22;11958;50.836;4.438;2023-06-14T05:43:36;20.10;39.40
23560;DHT22;11958;50.836;4.438;2023-06-14T05:46:04;20.10;40.50
23560;DHT22;11958;50.836;4.438;2023-06-14T05:48:30;20.10;39.90
23560;DHT22;11958;50.836;4.438;2023-06-14T05:50:56;20.10;40.50
23560;DHT22;11958;50.836;4.438;2023-06-14T05:55:57;20.40;40.10
23560;DHT22;11958;50.836;4.438;2023-06-14T05:58:23;20.60;39.90
23560;DHT22;11958;50.836;4.438;2023-06-14T06:00:51;20.80;39.60
23560;DHT22;11958;50.836;4.438;2023-06-14T06:03:54;21.20;36.70
23560;DHT22;11958;50.836;4.438;2023-06-14T06:06:32;21.50;36.60
23560;DHT22;11958;50.836;4.438;2023-06-14T06:37:15;22.10;34.30
23560;DHT22;11958;50.836;4.438;2023-06-14T06:39:44;22.00;35.00
23560;DHT22;11958;50.836;4.438;2023-06-14T06:45:45;22.50;33.00
23560;DHT22;11958;50.836;4.438;2023-06-14T06:48:44;22.90;32.10
23560;DHT22;11958;50.836;4.438;2023-06-14T06:59:42;23.00;32.00
23560;DHT22;11958;50.836;4.438;2023-06-14T07:02:07;23.10;32.20
23560;DHT22;11958;50.836;4.438;2023-06-14T07:15:20;23.60;31.10
23560;DHT22;11958;50.836;4.438;2023-06-14T07:32:49;24.10;28.30
23560;DHT22;11958;50.836;4.438;2023-06-14T08:04:42;25.00;27.90
23560;DHT22;11958;50.836;4.438;2023-06-14T08:07:26;25.20;27.40
23560;DHT22;11958;50.836;4.438;2023-06-14T08:09:52;25.40;27.80
23560;DHT22;11958;50.836;4.438;2023-06-14T08:22:40;25.90;27.40
23560;DHT22;11958;50.836;4.438;2023-06-14T08:27:52;25.80;28.10
23560;DHT22;11958;50.836;4.438;2023-06-14T08:39:39;25.40;28.50
23560;DHT22;11958;50.836;4.438;2023-06-14T08:49:45;25.20;29.90
23560;DHT22;11958;50.836;4.438;2023-06-14T08:52:13;25.30;28.90
23560;DHT22;11958;50.836;4.438;2023-06-14T08:54:44;25.60;27.90
23560;DHT22;11958;50.836;4.438;2023-06-14T09:00:22;25.20;30.50
23560;DHT22;11958;50.836;4.438;2023-06-14T09:11:56;25.30;29.80
23560;DHT22;11958;50.836;4.438;2023-06-14T09:14:24;25.40;30.10
23560;DHT22;11958;50.836;4.438;2023-06-14T09:16:54;26.00;27.50
23560;DHT22;11958;50.836;4.438;2023-06-14T09:19:24;26.20;26.50
23560;DHT22;11958;50.836;4.438;2023-06-14T09:24:25;26.40;27.40
23560;DHT22;11958;50.836;4.438;2023-06-14T09:29:33;26.50;26.10
23560;DHT22;11958;50.836;4.438;2023-06-14T09:32:21;26.80;26.60
23560;DHT22;11958;50.836;4.438;2023-06-14T09:35:06;26.40;27.10
23560;DHT22;11958;50.836;4.438;2023-06-14T09:37:39;26.20;27.10
23560;DHT22;11958;50.836;4.438;2023-06-14T09:40:13;26.70;24.10
23560;DHT22;11958;50.836;4.438;2023-06-14T09:43:16;26.60;23.20
23560;DHT22;11958;50.836;4.438;2023-06-14T09:45:44;26.50;24.00
23560;DHT22;11958;50.836;4.438;2023-06-14T09:48:36;26.50;24.80
23560;DHT22;11958;50.836;4.438;2023-06-14T09:51:27;26.40;24.70
23560;DHT22;11958;50.836;4.438;2023-06-14T09:56:36;26.30;24.10
23560;DHT22;11958;50.836;4.438;2023-06-14T09:59:21;26.20;24.50
23560;DHT22;11958;50.836;4.438;2023-06-14T10:02:00;26.30;25.10
23560;DHT22;11958;50.836;4.438;2023-06-14T10:05:09;26.10;25.20
23560;DHT22;11958;50.836;4.438;2023-06-14T10:07:55;26.20;24.70
23560;DHT22;11958;50.836;4.438;2023-06-14T10:10:21;26.30;25.20
23560;DHT22;11958;50.836;4.438;2023-06-14T10:12:56;26.50;25.10
23560;DHT22;11958;50.836;4.438;2023-06-14T10:21:22;27.00;23.70
23560;DHT22;11958;50.836;4.438;2023-06-14T10:23:51;27.00;24.10
23560;DHT22;11958;50.836;4.438;2023-06-14T10:26:22;27.10;23.80
23560;DHT22;11958;50.836;4.438;2023-06-14T10:29:06;27.30;22.60
23560;DHT22;11958;50.836;4.438;2023-06-14T10:34:08;27.80;20.00
23560;DHT22;11958;50.836;4.438;2023-06-14T10:36:33;27.40;20.30
23560;DHT22;11958;50.836;4.438;2023-06-14T10:39:17;27.60;20.00
23560;DHT22;11958;50.836;4.438;2023-06-14T10:41:53;27.60;19.10
23560;DHT22;11958;50.836;4.438;2023-06-14T10:52:34;27.30;19.60
23560;DHT22;11958;50.836;4.438;2023-06-14T11:00:52;27.30;19.30
23560;DHT22;11958;50.836;4.438;2023-06-14T11:03:50;27.70;19.30
23560;DHT22;11958;50.836;4.438;2023-06-14T11:12:57;27.80;18.80
23560;DHT22;11958;50.836;4.438;2023-06-14T11:16:20;27.70;18.80
23560;DHT22;11958;50.836;4.438;2023-06-14T11:19:26;27.90;17.20
23560;DHT22;11958;50.836;4.438;2023-06-14T11:39:50;27.90;19.00
23560;DHT22;11958;50.836;4.438;2023-06-14T11:50:59;28.00;17.90
23560;DHT22;11958;50.836;4.438;2023-06-14T12:10:14;28.30;17.50
23560;DHT22;11958;50.836;4.438;2023-06-14T12:15:54;29.10;16.90
23560;DHT22;11958;50.836;4.438;2023-06-14T12:18:32;30.40;15.90
23560;DHT22;11958;50.836;4.438;2023-06-14T12:24:28;32.50;13.70
23560;DHT22;11958;50.836;4.438;2023-06-14T12:27:07;32.70;13.00
23560;DHT22;11958;50.836;4.438;2023-06-14T12:29:43;33.20;12.20
23560;DHT22;11958;50.836;4.438;2023-06-14T12:32:24;34.10;11.80
23560;DHT22;11958;50.836;4.438;2023-06-14T12:38:19;34.20;11.60
23560;DHT22;11958;50.836;4.438;2023-06-14T12:47:59;33.70;11.40
23560;DHT22;11958;50.836;4.438;2023-06-14T12:51:12;34.70;10.40
23560;DHT22;11958;50.836;4.438;2023-06-14T12:53:41;33.70;10.90
23560;DHT22;11958;50.836;4.438;2023-06-14T12:56:18;34.40;10.40
23560;DHT22;11958;50.836;4.438;2023-06-14T12:59:11;34.30;10.40
23560;DHT22;11958;50.836;4.438;2023-06-14T13:01:38;33.80;10.60
23560;DHT22;11958;50.836;4.438;2023-06-14T13:04:05;34.20;10.20
23560;DHT22;11958;50.836;4.438;2023-06-14T13:06:32;33.80;10.80
23560;DHT22;11958;50.836;4.438;2023-06-14T13:08:57;34.40;10.50
23560;DHT22;11958;50.836;4.438;2023-06-14T13:11:24;34.50;9.40
23560;DHT22;11958;50.836;4.438;2023-06-14T13:16:37;35.40;9.30
23560;DHT22;11958;50.836;4.438;2023-06-14T13:19:03;36.00;9.40
23560;DHT22;11958;50.836;4.438;2023-06-14T13:21:28;35.30;9.70
23560;DHT22;11958;50.836;4.438;2023-06-14T13:23:57;36.10;8.80
23560;DHT22;11958;50.836;4.438;2023-06-14T13:26:33;36.00;9.10
23560;DHT22;11958;50.836;4.438;2023-06-14T13:29:02;35.60;9.20
23560;DHT22;11958;50.836;4.438;2023-06-14T13:31:41;35.40;9.30
23560;DHT22;11958;50.836;4.438;2023-06-14T13:34:06;35.20;9.50
23560;DHT22;11958;50.836;4.438;2023-06-14T13:37:03;35.00;9.50
23560;DHT22;11958;50.836;4.438;2023-06-14T13:40:06;35.90;8.40
23560;DHT22;11958;50.836;4.438;2023-06-14T13:42:53;34.40;9.10
23560;DHT22;11958;50.836;4.438;2023-06-14T13:45:34;33.70;9.80
23560;DHT22;11958;50.836;4.438;2023-06-14T13:48:01;32.70;10.10
23560;DHT22;11958;50.836;4.438;2023-06-14T13:50:35;33.20;9.50
23560;DHT22;11958;50.836;4.438;2023-06-14T13:53:22;33.70;9.30
23560;DHT22;11958;50.836;4.438;2023-06-14T13:56:02;34.50;8.30
23560;DHT22;11958;50.836;4.438;2023-06-14T13:58:48;35.40;7.90
23560;DHT22;11958;50.836;4.438;2023-06-14T14:01:26;35.40;7.60
23560;DHT22;11958;50.836;4.438;2023-06-14T14:04:07;33.80;8.50
23560;DHT22;11958;50.836;4.438;2023-06-14T14:06:46;34.80;8.40
23560;DHT22;11958;50.836;4.438;2023-06-14T14:09:11;35.50;7.60
23560;DHT22;11958;50.836;4.438;2023-06-14T14:11:38;35.90;7.10
23560;DHT22;11958;50.836;4.438;2023-06-14T14:14:05;34.80;7.60
23560;DHT22;11958;50.836;4.438;2023-06-14T14:23:23;36.50;6.70
23560;DHT22;11958;50.836;4.438;2023-06-14T14:32:37;38.00;6.30
23560;DHT22;11958;50.836;4.438;2023-06-14T14:35:21;37.00;5.60
23560;DHT22;11958;50.836;4.438;2023-06-14T14:37:48;35.20;7.10
23560;DHT22;11958;50.836;4.438;2023-06-14T14:40:14;34.90;7.20
23560;DHT22;11958;50.836;4.438;2023-06-14T14:42:49;34.90;7.20
23560;DHT22;11958;50.836;4.438;2023-06-14T14:45:15;36.50;6.30
23560;DHT22;11958;50.836;4.438;2023-06-14T14:47:59;37.40;5.60
23560;DHT22;11958;50.836;4.438;2023-06-14T14:50:26;37.90;5.90
23560;DHT22;11958;50.836;4.438;2023-06-14T14:53:43;36.70;5.20
23560;DHT22;11958;50.836;4.438;2023-06-14T14:56:01;37.10;5.80
23560;DHT22;11958;50.836;4.438;2023-06-14T14:58:27;35.90;5.50
23560;DHT22;11958;50.836;4.438;2023-06-14T15:00:52;35.40;5.90
23560;DHT22;11958;50.836;4.438;2023-06-14T15:03:18;35.30;6.00
23560;DHT22;11958;50.836;4.438;2023-06-14T15:06:10;34.10;6.40
23560;DHT22;11958;50.836;4.438;2023-06-14T15:08:35;34.40;6.70
23560;DHT22;11958;50.836;4.438;2023-06-14T15:11:01;34.90;6.30
23560;DHT22;11958;50.836;4.438;2023-06-14T15:13:28;35.60;6.30
23560;DHT22;11958;50.836;4.438;2023-06-14T15:21:33;34.10;6.90
23560;DHT22;11958;50.836;4.438;2023-06-14T15:24:10;33.20;7.10
23560;DHT22;11958;50.836;4.438;2023-06-14T15:26:36;32.90;7.80
23560;DHT22;11958;50.836;4.438;2023-06-14T15:29:05;31.60;8.20
23560;DHT22;11958;50.836;4.438;2023-06-14T15:31:34;30.60;9.10
23560;DHT22;11958;50.836;4.438;2023-06-14T15:33:59;30.30;10.00
23560;DHT22;11958;50.836;4.438;2023-06-14T15:36:25;29.70;10.50
23560;DHT22;11958;50.836;4.438;2023-06-14T15:38:51;30.10;10.40
23560;DHT22;11958;50.836;4.438;2023-06-14T15:41:31;29.90;10.10
23560;DHT22;11958;50.836;4.438;2023-06-14T15:46:25;29.20;10.90
23560;DHT22;11958;50.836;4.438;2023-06-14T15:49:09;28.90;11.30
23560;DHT22;11958;50.836;4.438;2023-06-14T15:51:36;29.00;11.00
23560;DHT22;11958;50.836;4.438;2023-06-14T15:54:01;29.10;11.10
23560;DHT22;11958;50.836;4.438;2023-06-14T15:56:27;28.90;11.00
23560;DHT22;11958;50.836;4.438;2023-06-14T16:01:29;28.30;11.90
23560;DHT22;11958;50.836;4.438;2023-06-14T16:06:26;28.40;12.00
23560;DHT22;11958;50.836;4.438;2023-06-14T16:11:31;29.10;11.90
23560;DHT22;11958;50.836;4.438;2023-06-14T16:13:57;29.30;11.50
23560;DHT22;11958;50.836;4.438;2023-06-14T16:16:22;29.20;11.00
23560;DHT22;11958;50.836;4.438;2023-06-14T16:18:52;28.70;11.20
23560;DHT22;11958;50.836;4.438;2023-06-14T16:23:49;28.20;11.60
23560;DHT22;11958;50.836;4.438;2023-06-14T16:26:15;28.40;12.00
23560;DHT22;11958;50.836;4.438;2023-06-14T16:28:41;28.40;12.40
23560;DHT22;11958;50.836;4.438;2023-06-14T16:31:12;28.20;12.80
23560;DHT22;11958;50.836;4.438;2023-06-14T16:33:40;28.00;13.10
23560;DHT22;11958;50.836;4.438;2023-06-14T16:36:05;27.80;13.60
23560;DHT22;11958;50.836;4.438;2023-06-14T16:38:31;27.70;13.80
23560;DHT22;11958;50.836;4.438;2023-06-14T16:41:20;28.00;13.30
23560;DHT22;11958;50.836;4.438;2023-06-14T16:44:04;27.70;13.20
23560;DHT22;11958;50.836;4.438;2023-06-14T16:46:31;27.60;13.60
23560;DHT22;11958;50.836;4.438;2023-06-14T16:49:28;27.50;13.70
23560;DHT22;11958;50.836;4.438;2023-06-14T16:52:12;27.70;13.40
23560;DHT22;11958;50.836;4.438;2023-06-14T16:54:53;27.60;13.20
23560;DHT22;11958;50.836;4.438;2023-06-14T16:57:48;27.70;13.30
23560;DHT22;11958;50.836;4.438;2023-06-14T17:03:29;27.80;12.90
23560;DHT22;11958;50.836;4.438;2023-06-14T17:06:06;27.20;13.20
23560;DHT22;11958;50.836;4.438;2023-06-14T17:08:38;27.00;13.50
23560;DHT22;11958;50.836;4.438;2023-06-14T17:20:29;27.00;13.50
23560;DHT22;11958;50.836;4.438;2023-06-14T17:23:03;26.50;13.50
23560;DHT22;11958;50.836;4.438;2023-06-14T17:25:29;26.50;13.40
23560;DHT22;11958;50.836;4.438;2023-06-14T17:27:57;26.70;13.30
23560;DHT22;11958;50.836;4.438;2023-06-14T17:33:58;26.50;13.90
23560;DHT22;11958;50.836;4.438;2023-06-14T17:42:32;26.90;14.00
23560;DHT22;11958;50.836;4.438;2023-06-14T17:45:07;26.70;13.90
23560;DHT22;11958;50.836;4.438;2023-06-14T17:47:45;26.60;14.10
23560;DHT22;11958;50.836;4.438;2023-06-14T17:50:42;26.40;14.00
23560;DHT22;11958;50.836;4.438;2023-06-14T17:53:11;26.10;14.50
23560;DHT22;11958;50.836;4.438;2023-06-14T17:55:37;26.30;13.50
23560;DHT22;11958;50.836;4.438;2023-06-14T17:58:07;25.90;13.80
23560;DHT22;11958;50.836;4.438;2023-06-14T18:00:32;26.20;13.90
23560;DHT22;11958;50.836;4.438;2023-06-14T18:03:04;26.00;14.00
23560;DHT22;11958;50.836;4.438;2023-06-14T18:05:30;26.00;13.80
23560;DHT22;11958;50.836;4.438;2023-06-14T18:07:56;26.00;13.80
23560;DHT22;11958;50.836;4.438;2023-06-14T18:10:21;25.90;14.60
23560;DHT22;11958;50.836;4.438;2023-06-14T18:15:56;26.20;14.70
23560;DHT22;11958;50.836;4.438;2023-06-14T18:18:41;25.90;14.70
23560;DHT22;11958;50.836;4.438;2023-06-14T18:21:07;25.80;15.50
23560;DHT22;11958;50.836;4.438;2023-06-14T18:23:33;25.70;16.10
23560;DHT22;11958;50.836;4.438;2023-06-14T18:26:14;25.70;16.10
23560;DHT22;11958;50.836;4.438;2023-06-14T18:29:05;25.70;15.70
23560;DHT22;11958;50.836;4.438;2023-06-14T18:31:30;25.60;15.70
23560;DHT22;11958;50.836;4.438;2023-06-14T18:36:41;25.50;16.00
23560;DHT22;11958;50.836;4.438;2023-06-14T18:39:07;25.40;16.00
23560;DHT22;11958;50.836;4.438;2023-06-14T18:41:33;25.40;16.40
23560;DHT22;11958;50.836;4.438;2023-06-14T18:43:59;25.40;16.60
23560;DHT22;11958;50.836;4.438;2023-06-14T18:46:25;25.30;16.40
23560;DHT22;11958;50.836;4.438;2023-06-14T18:48:56;25.50;16.70
23560;DHT22;11958;50.836;4.438;2023-06-14T18:51:22;25.50;17.00
23560;DHT22;11958;50.836;4.438;2023-06-14T18:53:48;25.50;16.90
23560;DHT22;11958;50.836;4.438;2023-06-14T18:56:13;25.60;17.00
23560;DHT22;11958;50.836;4.438;2023-06-14T18:58:39;25.50;16.90
23560;DHT22;11958;50.836;4.438;2023-06-14T19:01:05;25.40;17.30
23560;DHT22;11958;50.836;4.438;2023-06-14T19:03:31;25.30;17.90
23560;DHT22;11958;50.836;4.438;2023-06-14T19:05:57;25.40;17.50
23560;DHT22;11958;50.836;4.438;2023-06-14T19:08:24;25.20;18.00
23560;DHT22;11958;50.836;4.438;2023-06-14T19:10:50;25.30;18.10
23560;DHT22;11958;50.836;4.438;2023-06-14T19:13:16;25.20;18.10
23560;DHT22;11958;50.836;4.438;2023-06-14T19:15:41;25.00;17.90
23560;DHT22;11958;50.836;4.438;2023-06-14T19:18:07;24.90;18.60
23560;DHT22;11958;50.836;4.438;2023-06-14T19:20:33;25.00;18.20
23560;DHT22;11958;50.836;4.438;2023-06-14T19:22:59;25.30;18.20
23560;DHT22;11958;50.836;4.438;2023-06-14T19:25:25;25.30;18.00
23560;DHT22;11958;50.836;4.438;2023-06-14T19:27:51;25.00;18.60
23560;DHT22;11958;50.836;4.438;2023-06-14T19:30:18;25.10;18.80
23560;DHT22;11958;50.836;4.438;2023-06-14T19:32:43;24.90;19.00
23560;DHT22;11958;50.836;4.438;2023-06-14T19:35:10;24.80;19.10
23560;DHT22;11958;50.836;4.438;2023-06-14T19:37:36;24.80;18.40
23560;DHT22;11958;50.836;4.438;2023-06-14T19:40:03;24.60;19.40
23560;DHT22;11958;50.836;4.438;2023-06-14T19:42:29;24.50;19.40
23560;DHT22;11958;50.836;4.438;2023-06-14T19:44:55;24.30;19.70
23560;DHT22;11958;50.836;4.438;2023-06-14T19:47:20;24.70;19.20
23560;DHT22;11958;50.836;4.438;2023-06-14T19:49:46;24.90;19.20
23560;DHT22;11958;50.836;4.438;2023-06-14T19:52:12;24.60;19.60
23560;DHT22;11958;50.836;4.438;2023-06-14T19:54:37;24.60;19.70
23560;DHT22;11958;50.836;4.438;2023-06-14T19:57:03;24.50;20.50
23560;DHT22;11958;50.836;4.438;2023-06-14T19:59:29;24.40;20.20
23560;DHT22;11958;50.836;4.438;2023-06-14T20:02:24;24.30;20.50
23560;DHT22;11958;50.836;4.438;2023-06-14T20:04:50;24.10;20.70
23560;DHT22;11958;50.836;4.438;2023-06-14T20:07:16;24.20;20.60
23560;DHT22;11958;50.836;4.438;2023-06-14T20:09:42;24.30;20.70
23560;DHT22;11958;50.836;4.438;2023-06-14T20:12:08;24.50;20.40
23560;DHT22;11958;50.836;4.438;2023-06-14T20:14:33;24.30;20.50
23560;DHT22;11958;50.836;4.438;2023-06-14T20:16:59;24.20;20.90
23560;DHT22;11958;50.836;4.438;2023-06-14T20:19:24;24.20;20.90
23560;DHT22;11958;50.836;4.438;2023-06-14T20:21:50;24.10;21.00
23560;DHT22;11958;50.836;4.438;2023-06-14T20:24:16;24.00;21.20
23560;DHT22;11958;50.836;4.438;2023-06-14T20:26:42;24.00;21.20
23560;DHT22;11958;50.836;4.438;2023-06-14T20:29:07;23.80;21.40
23560;DHT22;11958;50.836;4.438;2023-06-14T20:31:33;23.80;21.40
23560;DHT22;11958;50.836;4.438;2023-06-14T20:33:59;23.60;22.10
23560;DHT22;11958;50.836;4.438;2023-06-14T20:36:24;23.40;22.40
23560;DHT22;11958;50.836;4.438;2023-06-14T20:38:50;23.60;22.10
23560;DHT22;11958;50.836;4.438;2023-06-14T20:41:16;23.70;21.80
23560;DHT22;11958;50.836;4.438;2023-06-14T20:43:42;23.50;22.10
23560;DHT22;11958;50.836;4.438;2023-06-14T20:46:12;23.60;22.30
23560;DHT22;11958;50.836;4.438;2023-06-14T20:48:37;23.40;22.40
23560;DHT22;11958;50.836;4.438;2023-06-14T20:51:03;23.40;22.80
23560;DHT22;11958;50.836;4.438;2023-06-14T20:53:28;23.60;22.20
23560;DHT22;11958;50.836;4.438;2023-06-14T20:55:55;23.50;22.60
23560;DHT22;11958;50.836;4.438;2023-06-14T20:58:21;23.40;23.00
23560;DHT22;11958;50.836;4.438;2023-06-14T21:00:47;23.20;23.10
23560;DHT22;11958;50.836;4.438;2023-06-14T21:03:14;23.20;23.20
23560;DHT22;11958;50.836;4.438;2023-06-14T21:05:40;23.10;23.60
23560;DHT22;11958;50.836;4.438;2023-06-14T21:08:06;22.90;23.90
23560;DHT22;11958;50.836;4.438;2023-06-14T21:10:32;23.00;24.10
23560;DHT22;11958;50.836;4.438;2023-06-14T21:12:57;23.00;24.10
23560;DHT22;11958;50.836;4.438;2023-06-14T21:15:24;23.10;24.20
23560;DHT22;11958;50.836;4.438;2023-06-14T21:17:51;23.10;24.40
23560;DHT22;11958;50.836;4.438;2023-06-14T21:20:17;22.90;24.90
23560;DHT22;11958;50.836;4.438;2023-06-14T21:22:43;23.20;24.60
23560;DHT22;11958;50.836;4.438;2023-06-14T21:25:09;22.80;25.10
23560;DHT22;11958;50.836;4.438;2023-06-14T21:27:36;22.60;25.50
23560;DHT22;11958;50.836;4.438;2023-06-14T21:30:03;22.50;26.10
23560;DHT22;11958;50.836;4.438;2023-06-14T21:32:29;22.70;25.60
23560;DHT22;11958;50.836;4.438;2023-06-14T21:34:55;23.00;25.10
23560;DHT22;11958;50.836;4.438;2023-06-14T21:37:21;22.80;25.40
23560;DHT22;11958;50.836;4.438;2023-06-14T21:39:46;23.00;25.50
23560;DHT22;11958;50.836;4.438;2023-06-14T21:42:12;23.00;25.40